createdAt,value
2019-02-12T00:01:00.423Z,4.08
2019-02-12T00:03:26.961Z,4.01
2019-02-12T00:05:53.524Z,4.03
2019-02-12T00:08:20.070Z,4.01
2019-02-12T00:10:46.638Z,3.98
2019-02-12T00:13:16.010Z,3.90
2019-02-12T00:15:42.586Z,3.91
2019-02-12T00:18:09.128Z,3.89
2019-02-12T00:20:35.708Z,3.91
2019-02-12T00:23:02.244Z,3.82
2019-02-12T00:25:28.806Z,3.84
2019-02-12T00:27:55.339Z,3.83
2019-02-12T00:30:21.915Z,3.84
2019-02-12T00:32:48.471Z,3.84
2019-02-12T00:35:15.040Z,3.85
2019-02-12T00:37:41.585Z,3.82
2019-02-12T00:40:08.987Z,3.87
2019-02-12T00:42:35.542Z,3.83
2019-02-12T00:45:02.115Z,3.85
2019-02-12T00:47:28.678Z,3.88
2019-02-12T00:49:55.212Z,3.88
2019-02-12T00:52:21.774Z,3.85
2019-02-12T00:54:48.342Z,3.82
2019-02-12T00:57:14.896Z,3.83
2019-02-12T00:59:41.433Z,3.84
2019-02-12T01:02:07.985Z,3.89
2019-02-12T01:04:34.544Z,3.92
2019-02-12T01:07:01.085Z,3.85
2019-02-12T01:09:27.641Z,3.90
2019-02-12T01:11:54.212Z,3.84
2019-02-12T01:14:20.754Z,3.89
2019-02-12T01:16:47.317Z,3.85
2019-02-12T01:19:13.849Z,3.82
2019-02-12T01:21:40.416Z,3.81
2019-02-12T01:24:06.953Z,3.79
2019-02-12T01:26:33.517Z,3.79
2019-02-12T01:29:00.065Z,3.78
2019-02-12T01:31:26.638Z,3.78
2019-02-12T01:33:53.174Z,3.76
2019-02-12T01:36:19.753Z,3.71
2019-02-12T01:38:46.290Z,3.72
2019-02-12T01:41:12.853Z,3.73
2019-02-12T01:43:39.395Z,3.69
2019-02-12T01:46:05.961Z,3.72
2019-02-12T01:48:32.504Z,3.69
2019-02-12T01:50:59.086Z,3.65
2019-02-12T01:53:25.628Z,3.61
2019-02-12T01:55:52.190Z,3.64
2019-02-12T01:58:18.722Z,3.64
2019-02-12T02:00:45.291Z,3.68
2019-02-12T02:03:11.833Z,3.69
2019-02-12T02:05:38.395Z,3.67
2019-02-12T02:08:04.937Z,3.67
2019-02-12T02:10:31.496Z,3.66
2019-02-12T02:12:58.049Z,3.57
2019-02-12T02:15:24.594Z,3.58
2019-02-12T02:17:51.168Z,3.53
2019-02-12T02:20:17.805Z,3.50
2019-02-12T02:22:44.377Z,3.46
2019-02-12T02:25:10.954Z,3.43
2019-02-12T02:27:37.514Z,3.40
2019-02-12T02:30:04.354Z,3.39
2019-02-12T02:32:31.058Z,3.37
2019-02-12T02:34:57.736Z,3.44
2019-02-12T02:37:24.514Z,3.38
2019-02-12T02:39:51.086Z,3.40
2019-02-12T02:42:17.661Z,3.40
2019-02-12T02:44:44.221Z,3.36
2019-02-12T02:47:10.795Z,3.37
2019-02-12T02:49:37.406Z,3.37
2019-02-12T02:52:03.970Z,3.37
2019-02-12T02:54:30.528Z,3.34
2019-02-12T02:56:57.092Z,3.36
2019-02-12T02:59:23.660Z,3.38
2019-02-12T03:01:50.228Z,3.36
2019-02-12T03:04:16.845Z,3.40
2019-02-12T03:06:43.393Z,3.43
2019-02-12T03:09:12.254Z,3.46
2019-02-12T03:11:38.814Z,3.41
2019-02-12T03:14:05.393Z,3.35
2019-02-12T03:16:31.947Z,3.29
2019-02-12T03:18:58.513Z,3.29
2019-02-12T03:21:25.068Z,3.29
2019-02-12T03:23:51.655Z,3.23
2019-02-12T03:26:18.190Z,3.16
2019-02-12T03:28:44.776Z,3.07
2019-02-12T03:31:11.601Z,3.04
2019-02-12T03:33:38.182Z,3.03
2019-02-12T03:36:04.713Z,3.12
2019-02-12T03:38:31.286Z,3.16
2019-02-12T03:40:57.839Z,3.20
2019-02-12T03:43:25.490Z,3.25
2019-02-12T03:45:52.045Z,3.22
2019-02-12T03:48:18.620Z,3.20
2019-02-12T03:50:45.168Z,3.25
2019-02-12T03:53:11.725Z,3.27
2019-02-12T03:55:38.272Z,3.25
2019-02-12T03:58:04.841Z,3.25
2019-02-12T04:00:31.706Z,3.29
2019-02-12T04:03:06.030Z,3.36
2019-02-12T04:05:33.020Z,3.30
2019-02-12T04:07:59.645Z,3.36
2019-02-12T04:10:26.197Z,3.24
2019-02-12T04:12:52.782Z,3.24
2019-02-12T04:15:19.333Z,3.18
2019-02-12T04:17:45.897Z,3.08
2019-02-12T04:20:12.457Z,3.12
2019-02-12T04:22:40.118Z,3.17
2019-02-12T04:25:06.695Z,3.22
2019-02-12T04:27:33.229Z,3.16
2019-02-12T04:29:59.804Z,3.14
2019-02-12T04:32:26.361Z,3.16
2019-02-12T04:34:52.916Z,3.12
2019-02-12T04:37:19.483Z,3.18
2019-02-12T04:39:46.057Z,3.10
2019-02-12T04:42:12.610Z,3.13
2019-02-12T04:44:39.178Z,3.07
2019-02-12T04:47:05.724Z,3.01
2019-02-12T04:49:32.305Z,2.97
2019-02-12T04:51:58.857Z,2.97
2019-02-12T04:54:25.440Z,2.95
2019-02-12T04:56:51.985Z,2.97
2019-02-12T04:59:18.556Z,2.90
2019-02-12T05:01:45.107Z,2.85
2019-02-12T05:04:11.680Z,2.85
2019-02-12T05:06:38.242Z,2.88
2019-02-12T05:09:16.306Z,2.83
2019-02-12T05:11:46.086Z,2.85
2019-02-12T05:14:12.667Z,2.85
2019-02-12T05:16:39.222Z,2.86
2019-02-12T05:19:05.770Z,2.87
2019-02-12T05:21:32.374Z,2.88
2019-02-12T05:23:59.221Z,2.86
2019-02-12T05:26:25.840Z,2.85
2019-02-12T05:28:52.397Z,2.90
2019-02-12T05:31:18.976Z,2.89
2019-02-12T05:33:45.542Z,2.81
2019-02-12T05:36:12.115Z,2.83
2019-02-12T05:38:38.657Z,2.76
2019-02-12T05:41:05.231Z,2.76
2019-02-12T05:43:32.988Z,2.69
2019-02-12T05:45:59.871Z,2.64
2019-02-12T05:48:26.437Z,2.58
2019-02-12T05:50:52.985Z,2.55
2019-02-12T05:53:19.537Z,2.52
2019-02-12T05:55:46.113Z,2.45
2019-02-12T05:58:12.666Z,2.41
2019-02-12T06:00:40.481Z,2.31
2019-02-12T06:03:08.314Z,2.35
2019-02-12T06:05:34.898Z,2.34
2019-02-12T06:08:01.453Z,2.32
2019-02-12T06:10:28.060Z,2.31
2019-02-12T06:12:54.642Z,2.33
2019-02-12T06:15:21.195Z,2.26
2019-02-12T06:17:47.751Z,2.25
2019-02-12T06:20:14.330Z,2.25
2019-02-12T06:22:40.885Z,2.27
2019-02-12T06:25:08.425Z,2.28
2019-02-12T06:27:35.099Z,2.31
2019-02-12T06:30:01.719Z,2.33
2019-02-12T06:32:28.271Z,2.40
2019-02-12T06:34:54.818Z,2.39
2019-02-12T06:37:21.415Z,2.39
2019-02-12T06:39:48.103Z,2.45
2019-02-12T06:42:14.647Z,2.45
2019-02-12T06:44:41.185Z,2.45
2019-02-12T06:47:07.786Z,2.38
2019-02-12T06:49:34.306Z,2.37
2019-02-12T06:52:00.880Z,2.42
2019-02-12T06:54:27.425Z,2.42
2019-02-12T06:56:53.991Z,2.49
2019-02-12T06:59:20.545Z,2.54
2019-02-12T07:01:47.166Z,2.58
2019-02-12T07:04:19.886Z,2.58
2019-02-12T07:07:31.907Z,2.62
2019-02-12T07:10:20.325Z,2.66
2019-02-12T07:13:27.752Z,2.71
2019-02-12T07:16:29.516Z,2.77
2019-02-12T07:19:13.269Z,2.82
2019-02-12T07:22:11.630Z,2.83
2019-02-12T07:25:29.366Z,2.85
2019-02-12T07:28:50.151Z,2.89
2019-02-12T07:31:54.562Z,2.83
2019-02-12T07:34:47.352Z,2.90
2019-02-12T07:37:29.260Z,2.94
2019-02-12T07:40:23.790Z,2.88
2019-02-12T07:43:33.760Z,2.88
2019-02-12T07:46:41.716Z,2.90
2019-02-12T07:49:31.075Z,2.95
2019-02-12T07:52:32.655Z,3.01
2019-02-12T07:55:41.618Z,3.03
2019-02-12T07:58:39.253Z,3.05
2019-02-12T08:01:13.779Z,3.17
2019-02-12T08:04:25.662Z,3.17
2019-02-12T08:07:17.510Z,3.13
2019-02-12T08:10:15.362Z,3.13
2019-02-12T08:13:14.332Z,3.25
2019-02-12T08:15:53.083Z,3.27
2019-02-12T08:18:47.293Z,3.36
2019-02-12T08:21:37.663Z,3.46
2019-02-12T08:24:32.567Z,3.44
2019-02-12T08:28:02.189Z,3.44
2019-02-12T08:30:55.863Z,3.52
2019-02-12T08:33:52.985Z,3.57
2019-02-12T08:36:49.170Z,3.57
2019-02-12T08:39:49.089Z,3.58
2019-02-12T08:42:58.948Z,3.62
2019-02-12T08:46:01.863Z,3.66
2019-02-12T08:49:09.988Z,3.66
2019-02-12T08:52:23.418Z,3.62
2019-02-12T08:54:59.953Z,3.70
2019-02-12T08:58:00.768Z,3.66
2019-02-12T09:00:48.258Z,3.69
2019-02-12T09:03:56.659Z,3.74
2019-02-12T09:06:32.663Z,3.77
2019-02-12T09:09:37.236Z,3.87
2019-02-12T09:12:38.519Z,3.92
2019-02-12T09:15:23.223Z,3.88
2019-02-12T09:18:50.349Z,3.85
2019-02-12T09:21:41.648Z,3.78
2019-02-12T09:24:22.403Z,3.78
2019-02-12T09:26:55.988Z,3.97
2019-02-12T09:30:03.655Z,3.93
2019-02-12T09:33:11.040Z,3.98
2019-02-12T09:36:04.677Z,3.99
2019-02-12T09:39:12.927Z,4.22
2019-02-12T09:41:52.234Z,4.21
2019-02-12T09:44:54.314Z,4.32
2019-02-12T09:47:40.700Z,4.42
2019-02-12T09:50:20.156Z,4.45
2019-02-12T09:53:43.964Z,4.47
2019-02-12T09:56:28.788Z,4.41
2019-02-12T09:59:23.820Z,4.52
2019-02-12T10:02:13.692Z,4.52
2019-02-12T10:04:50.051Z,4.72
2019-02-12T10:07:47.889Z,4.91
2019-02-12T10:10:45.545Z,5.05
2019-02-12T10:13:27.897Z,5.17
2019-02-12T10:16:31.445Z,5.22
2019-02-12T10:19:10.400Z,5.29
2019-02-12T10:22:13.918Z,5.24
2019-02-12T10:25:34.731Z,5.36
2019-02-12T10:28:48.665Z,5.36
2019-02-12T10:31:16.128Z,4.98
2019-02-12T10:33:42.670Z,5.10
2019-02-12T10:36:09.257Z,5.05
2019-02-12T10:38:35.805Z,5.09
2019-02-12T10:41:02.357Z,5.21
2019-02-12T10:43:29.254Z,5.34
2019-02-12T10:45:55.813Z,5.65
2019-02-12T10:48:22.356Z,5.97
2019-02-12T10:50:48.929Z,6.20
2019-02-12T10:53:15.463Z,6.57
2019-02-12T10:55:42.024Z,6.80
2019-02-12T10:58:08.680Z,6.96
2019-02-12T11:00:35.218Z,7.02
2019-02-12T11:03:01.761Z,7.20
2019-02-12T11:05:28.313Z,6.98
2019-02-12T11:07:54.868Z,6.96
2019-02-12T11:10:21.400Z,6.95
2019-02-12T11:12:47.971Z,6.46
2019-02-12T11:15:14.570Z,6.23
2019-02-12T11:17:41.124Z,6.34
2019-02-12T11:20:07.695Z,6.16
2019-02-12T11:22:34.245Z,6.20
2019-02-12T11:25:00.803Z,6.17
2019-02-12T11:27:27.345Z,5.92
2019-02-12T11:29:53.909Z,5.55
2019-02-12T11:32:20.455Z,5.53
2019-02-12T11:34:47.027Z,5.80
2019-02-12T11:37:13.563Z,6.10
2019-02-12T11:39:40.114Z,6.22
2019-02-12T11:42:06.693Z,6.22
2019-02-12T11:44:33.235Z,6.27
2019-02-12T11:46:59.810Z,6.17
2019-02-12T11:49:26.363Z,5.99
2019-02-12T11:51:52.920Z,5.89
2019-02-12T11:54:19.464Z,5.62
2019-02-12T11:56:46.027Z,5.55
2019-02-12T11:59:12.583Z,5.36
2019-02-12T12:01:39.146Z,5.39
2019-02-12T12:04:05.699Z,5.38
2019-02-12T12:06:32.268Z,5.53
2019-02-12T12:08:58.804Z,5.56
2019-02-12T12:11:25.370Z,5.78
2019-02-12T12:13:51.941Z,5.98
2019-02-12T12:16:18.532Z,6.23
2019-02-12T12:18:45.077Z,6.28
2019-02-12T12:21:11.639Z,6.27
2019-02-12T12:23:38.178Z,6.40
2019-02-12T12:26:04.747Z,6.43
2019-02-12T12:28:31.293Z,6.19
2019-02-12T12:30:57.860Z,6.30
2019-02-12T12:33:24.399Z,6.71
2019-02-12T12:35:51.032Z,6.55
2019-02-12T12:38:17.612Z,6.89
2019-02-12T12:40:44.110Z,6.76
2019-02-12T12:43:10.670Z,6.90
2019-02-12T12:45:37.232Z,6.69
2019-02-12T12:48:03.804Z,6.72
2019-02-12T12:50:30.349Z,6.70
2019-02-12T12:52:56.905Z,7.11
2019-02-12T12:55:23.466Z,7.28
2019-02-12T12:57:51.527Z,7.59
2019-02-12T13:00:18.054Z,8.60
2019-02-12T13:02:44.609Z,9.81
2019-02-12T13:05:11.309Z,9.30
2019-02-12T13:07:37.836Z,8.68
2019-02-12T13:10:06.223Z,7.75
2019-02-12T13:12:32.798Z,7.96
2019-02-12T13:14:59.322Z,7.89
2019-02-12T13:17:25.868Z,7.64
2019-02-12T13:19:52.496Z,7.54
2019-02-12T13:22:19.062Z,7.68
2019-02-12T13:24:45.628Z,7.23
2019-02-12T13:27:12.176Z,7.38
2019-02-12T13:29:38.706Z,7.14
2019-02-12T13:32:05.273Z,7.07
2019-02-12T13:34:31.828Z,7.00
2019-02-12T13:36:58.377Z,6.98
2019-02-12T13:39:24.905Z,6.91
2019-02-12T13:41:51.456Z,6.72
2019-02-12T13:44:18.008Z,6.87
2019-02-12T13:46:44.568Z,7.10
2019-02-12T13:49:11.101Z,7.28
2019-02-12T13:51:37.656Z,7.36
2019-02-12T13:54:04.849Z,6.99
2019-02-12T13:56:31.457Z,6.97
2019-02-12T13:58:58.001Z,7.00
2019-02-12T14:01:24.532Z,6.67
2019-02-12T14:03:51.166Z,6.56
2019-02-12T14:06:17.848Z,6.41
2019-02-12T14:08:44.427Z,6.33
2019-02-12T14:11:10.971Z,6.17
2019-02-12T14:13:37.569Z,6.26
2019-02-12T14:16:04.113Z,6.26
2019-02-12T14:18:30.671Z,6.25
2019-02-12T14:20:57.202Z,6.29
2019-02-12T14:23:23.776Z,6.34
2019-02-12T14:25:50.345Z,6.23
2019-02-12T14:28:16.889Z,6.16
2019-02-12T14:30:43.455Z,6.19
2019-02-12T14:33:10.015Z,6.22
2019-02-12T14:35:36.556Z,6.26
2019-02-12T14:38:03.109Z,6.34
2019-02-12T14:40:29.677Z,6.34
2019-02-12T14:42:56.258Z,6.37
2019-02-12T14:45:22.825Z,6.30
2019-02-12T14:47:49.387Z,6.23
2019-02-12T14:50:15.935Z,6.34
2019-02-12T14:52:42.472Z,6.42
2019-02-12T14:55:09.042Z,6.55
2019-02-12T14:57:35.600Z,6.77
2019-02-12T15:00:02.220Z,7.15
2019-02-12T15:02:28.759Z,7.31
2019-02-12T15:05:00.428Z,7.51
2019-02-12T15:07:23.752Z,7.50
2019-02-12T15:09:50.320Z,7.32
2019-02-12T15:12:16.846Z,6.84
2019-02-12T15:14:43.426Z,6.96
2019-02-12T15:17:09.972Z,6.72
2019-02-12T15:19:36.523Z,6.56
2019-02-12T15:22:03.063Z,6.51
2019-02-12T15:24:29.628Z,6.41
2019-02-12T15:26:56.181Z,6.35
2019-02-12T15:29:22.737Z,6.32
2019-02-12T15:31:49.273Z,6.27
2019-02-12T15:34:15.830Z,6.14
2019-02-12T15:36:42.404Z,6.13
2019-02-12T15:39:08.951Z,6.14
2019-02-12T15:41:35.513Z,6.11
2019-02-12T15:44:02.320Z,6.02
2019-02-12T15:46:28.885Z,6.03
2019-02-12T15:48:55.465Z,6.09
2019-02-12T15:51:22.024Z,6.05
2019-02-12T15:53:48.600Z,5.95
2019-02-12T15:56:15.148Z,5.97
2019-02-12T15:58:41.722Z,6.00
2019-02-12T16:01:08.257Z,5.87
2019-02-12T16:03:37.735Z,5.78
2019-02-12T16:06:03.289Z,5.80
2019-02-12T16:08:30.466Z,5.67
2019-02-12T16:10:58.990Z,5.65
2019-02-12T16:13:25.551Z,5.63
2019-02-12T16:15:52.121Z,5.61
2019-02-12T16:18:20.669Z,5.64
2019-02-12T16:20:47.147Z,5.70
2019-02-12T16:23:15.978Z,5.74
2019-02-12T16:25:42.556Z,5.74
2019-02-12T16:28:09.090Z,5.73
2019-02-12T16:30:35.673Z,5.75
2019-02-12T16:33:02.211Z,5.76
2019-02-12T16:35:28.774Z,5.73
2019-02-12T16:37:55.306Z,5.71
2019-02-12T16:40:23.332Z,5.74
2019-02-12T16:42:50.002Z,5.81
2019-02-12T16:45:22.703Z,5.74
2019-02-12T16:47:49.247Z,5.73
2019-02-12T16:50:15.815Z,5.68
2019-02-12T16:52:42.364Z,5.68
2019-02-12T16:55:09.446Z,5.68
2019-02-12T16:57:35.994Z,5.70
2019-02-12T17:00:04.979Z,5.70
2019-02-12T17:02:31.514Z,5.72
2019-02-12T17:04:58.073Z,5.65
2019-02-12T17:07:24.653Z,5.71
2019-02-12T17:09:52.551Z,5.69
2019-02-12T17:12:19.580Z,5.68
2019-02-12T17:14:46.156Z,5.66
2019-02-12T17:17:12.700Z,5.70
2019-02-12T17:19:39.271Z,5.72
2019-02-12T17:22:05.805Z,5.64
2019-02-12T17:24:32.372Z,5.59
2019-02-12T17:26:59.039Z,5.59
2019-02-12T17:29:25.604Z,5.49
2019-02-12T17:31:52.173Z,5.53
2019-02-12T17:34:18.724Z,5.48
2019-02-12T17:36:45.286Z,5.35
2019-02-12T17:39:11.831Z,5.30
2019-02-12T17:41:38.392Z,5.24
2019-02-12T17:44:04.955Z,5.23
2019-02-12T17:46:32.364Z,5.20
2019-02-12T17:48:58.923Z,5.19
2019-02-12T17:51:25.490Z,5.17
2019-02-12T17:53:52.189Z,5.19
2019-02-12T17:56:24.785Z,5.20
2019-02-12T17:58:47.213Z,5.22
2019-02-12T18:01:13.821Z,5.27
2019-02-12T18:03:40.379Z,5.24
2019-02-12T18:06:06.913Z,5.23
2019-02-12T18:08:33.513Z,5.27
2019-02-12T18:11:00.066Z,5.25
2019-02-12T18:13:26.626Z,5.24
2019-02-12T18:15:53.198Z,5.23
2019-02-12T18:18:19.761Z,5.18
2019-02-12T18:20:46.319Z,5.15
2019-02-12T18:23:12.887Z,5.13
2019-02-12T18:25:39.428Z,5.18
2019-02-12T18:28:05.999Z,5.10
2019-02-12T18:30:32.557Z,5.06
2019-02-12T18:32:59.095Z,5.03
2019-02-12T18:35:25.656Z,4.97
2019-02-12T18:37:52.208Z,5.00
2019-02-12T18:40:18.760Z,4.97
2019-02-12T18:42:45.350Z,4.93
2019-02-12T18:45:12.948Z,4.84
2019-02-12T18:47:39.504Z,4.79
2019-02-12T18:50:06.702Z,4.78
2019-02-12T18:52:33.260Z,4.73
2019-02-12T18:54:59.796Z,4.78
2019-02-12T18:57:26.362Z,4.75
2019-02-12T18:59:52.925Z,4.70
2019-02-12T19:02:19.457Z,4.65
2019-02-12T19:04:46.026Z,4.60
2019-02-12T19:07:12.581Z,4.53
2019-02-12T19:09:39.144Z,4.43
2019-02-12T19:12:05.703Z,4.40
2019-02-12T19:14:32.256Z,4.26
2019-02-12T19:16:58.813Z,4.19
2019-02-12T19:19:25.349Z,4.15
2019-02-12T19:21:51.904Z,3.94
2019-02-12T19:24:18.455Z,4.11
2019-02-12T19:26:49.873Z,4.22
2019-02-12T19:29:13.460Z,4.22
2019-02-12T19:31:40.012Z,4.27
2019-02-12T19:34:06.576Z,4.16
2019-02-12T19:36:33.139Z,4.07
2019-02-12T19:38:59.716Z,4.09
2019-02-12T19:41:26.265Z,4.06
2019-02-12T19:43:52.870Z,3.96
2019-02-12T19:46:19.417Z,4.16
2019-02-12T19:48:45.980Z,4.14
2019-02-12T19:51:12.522Z,4.06
2019-02-12T19:53:39.085Z,4.00
2019-02-12T19:56:05.631Z,3.91
2019-02-12T19:58:32.197Z,3.89
2019-02-12T20:00:58.772Z,3.89
2019-02-12T20:03:25.315Z,3.83
2019-02-12T20:05:51.889Z,3.81
2019-02-12T20:08:18.448Z,3.80
2019-02-12T20:10:44.984Z,3.67
2019-02-12T20:13:11.568Z,3.78
2019-02-12T20:15:38.128Z,3.78
2019-02-12T20:18:04.988Z,3.67
2019-02-12T20:20:31.520Z,3.60
2019-02-12T20:22:58.091Z,3.45
2019-02-12T20:25:24.632Z,3.47
2019-02-12T20:27:51.183Z,3.44
2019-02-12T20:30:17.756Z,3.50
2019-02-12T20:32:44.292Z,3.44
2019-02-12T20:35:11.389Z,3.45
2019-02-12T20:37:37.962Z,3.54
2019-02-12T20:40:05.723Z,3.62
2019-02-12T20:42:32.273Z,3.53
2019-02-12T20:44:58.850Z,3.51
2019-02-12T20:47:25.410Z,3.50
2019-02-12T20:49:51.977Z,3.33
2019-02-12T20:52:18.520Z,3.31
2019-02-12T20:54:45.084Z,3.26
2019-02-12T20:57:15.188Z,3.32
2019-02-12T20:59:40.118Z,3.30
2019-02-12T21:02:06.653Z,3.21
2019-02-12T21:04:33.222Z,3.30
2019-02-12T21:06:59.761Z,3.22
2019-02-12T21:09:26.324Z,3.09
2019-02-12T21:11:52.884Z,3.10
2019-02-12T21:14:19.468Z,3.05
2019-02-12T21:16:46.014Z,3.07
2019-02-12T21:19:12.586Z,3.05
2019-02-12T21:21:39.133Z,3.07
2019-02-12T21:24:05.713Z,3.05
2019-02-12T21:26:32.258Z,2.92
2019-02-12T21:28:58.823Z,2.94
2019-02-12T21:31:25.368Z,2.88
2019-02-12T21:33:51.922Z,2.90
2019-02-12T21:36:18.479Z,2.83
2019-02-12T21:38:45.018Z,2.93
2019-02-12T21:41:11.586Z,2.95
2019-02-12T21:43:38.142Z,3.08
2019-02-12T21:46:04.712Z,3.05
2019-02-12T21:48:31.257Z,2.98
2019-02-12T21:50:57.817Z,2.96
2019-02-12T21:53:24.360Z,2.94
2019-02-12T21:55:50.931Z,3.03
2019-02-12T21:58:17.491Z,3.12
2019-02-12T22:00:44.073Z,3.21
2019-02-12T22:03:10.610Z,3.28
2019-02-12T22:05:37.179Z,3.29
2019-02-12T22:08:03.727Z,3.20
2019-02-12T22:10:30.276Z,3.32
2019-02-12T22:12:56.836Z,3.27
2019-02-12T22:15:23.390Z,3.40
2019-02-12T22:17:49.933Z,3.40
2019-02-12T22:20:16.488Z,3.34
2019-02-12T22:22:43.028Z,3.40
2019-02-12T22:25:09.595Z,3.35
2019-02-12T22:27:40.408Z,3.38
2019-02-12T22:30:08.496Z,3.39
2019-02-12T22:32:35.046Z,3.37
2019-02-12T22:35:01.605Z,3.40
2019-02-12T22:37:28.165Z,3.56
2019-02-12T22:39:54.695Z,3.54
2019-02-12T22:42:21.270Z,3.66
2019-02-12T22:44:47.815Z,3.69
2019-02-12T22:47:14.373Z,3.73
2019-02-12T22:49:40.927Z,3.72
2019-02-12T22:52:07.487Z,3.79
2019-02-12T22:54:34.026Z,3.73
2019-02-12T22:57:00.587Z,3.76
2019-02-12T22:59:27.122Z,3.77
2019-02-12T23:01:53.694Z,3.89
2019-02-12T23:04:20.239Z,3.84
2019-02-12T23:06:46.798Z,4.17
2019-02-12T23:09:15.924Z,4.27
2019-02-12T23:11:42.498Z,4.35
2019-02-12T23:14:09.055Z,4.35
2019-02-12T23:16:35.616Z,4.43
2019-02-12T23:19:02.167Z,4.39
2019-02-12T23:21:28.728Z,4.49
2019-02-12T23:23:55.273Z,4.65
2019-02-12T23:26:21.839Z,4.73
2019-02-12T23:28:48.404Z,4.72
2019-02-12T23:31:14.973Z,4.76
2019-02-12T23:33:41.510Z,4.82
2019-02-12T23:36:08.073Z,4.83
2019-02-12T23:38:34.621Z,4.86
2019-02-12T23:41:01.190Z,4.95
2019-02-12T23:43:27.731Z,4.99
2019-02-12T23:45:54.313Z,5.05
2019-02-12T23:48:20.857Z,5.04
2019-02-12T23:50:47.609Z,5.03
2019-02-12T23:53:14.172Z,5.02
2019-02-12T23:55:40.715Z,5.01
2019-02-12T23:58:07.283Z,4.99
